createdAt,value
2017-05-11T00:00:00.824Z,99.90
2017-05-11T00:02:29.332Z,99.60
2017-05-11T00:04:57.891Z,99.90
2017-05-11T00:07:26.407Z,99.90
2017-05-11T00:09:54.923Z,99.90
2017-05-11T00:12:23.485Z,99.90
2017-05-11T00:14:52.008Z,99.90
2017-05-11T00:17:20.531Z,99.90
2017-05-11T00:19:49.091Z,99.90
2017-05-11T00:22:17.625Z,99.90
2017-05-11T00:24:46.148Z,99.90
2017-05-11T00:27:14.700Z,99.90
2017-05-11T00:29:43.206Z,99.90
2017-05-11T00:32:11.723Z,99.90
2017-05-11T00:34:40.276Z,99.90
2017-05-11T00:37:08.807Z,99.90
2017-05-11T00:39:37.330Z,99.90
2017-05-11T00:42:05.888Z,99.90
2017-05-11T00:44:35.186Z,99.90
2017-05-11T00:47:03.698Z,99.90
2017-05-11T00:49:32.251Z,99.90
2017-05-11T00:52:00.780Z,99.90
2017-05-11T00:54:29.320Z,99.90
2017-05-11T00:56:57.884Z,99.90
2017-05-11T00:59:26.404Z,99.90
2017-05-11T01:01:54.940Z,99.90
2017-05-11T01:04:23.503Z,99.90
2017-05-11T01:06:52.038Z,99.90
2017-05-11T01:09:20.563Z,99.90
2017-05-11T01:11:49.129Z,99.90
2017-05-11T01:14:17.649Z,99.90
2017-05-11T01:16:46.186Z,99.90
2017-05-11T01:19:14.773Z,99.90
2017-05-11T01:21:43.304Z,99.90
2017-05-11T01:24:11.848Z,99.90
2017-05-11T01:26:40.423Z,99.90
2017-05-11T01:29:08.971Z,99.90
2017-05-11T01:31:37.508Z,99.90
2017-05-11T01:34:06.099Z,99.90
2017-05-11T01:36:34.648Z,99.90
2017-05-11T01:39:03.216Z,99.90
2017-05-11T01:41:31.793Z,99.90
2017-05-11T01:44:00.345Z,99.90
2017-05-11T01:46:28.895Z,99.90
2017-05-11T01:48:57.513Z,99.90
2017-05-11T01:51:26.057Z,99.90
2017-05-11T01:53:54.569Z,99.90
2017-05-11T01:56:23.141Z,99.90
2017-05-11T01:58:51.675Z,99.90
2017-05-11T02:01:20.200Z,99.90
2017-05-11T02:03:48.772Z,99.90
2017-05-11T02:06:17.293Z,99.90
2017-05-11T02:08:45.832Z,99.90
2017-05-11T02:11:14.399Z,99.90
2017-05-11T02:13:42.931Z,99.90
2017-05-11T02:16:11.460Z,99.90
2017-05-11T02:18:40.058Z,99.90
2017-05-11T02:21:08.570Z,99.90
2017-05-11T02:23:37.105Z,99.90
2017-05-11T02:26:05.663Z,99.90
2017-05-11T02:28:34.194Z,99.90
2017-05-11T02:31:02.741Z,99.90
2017-05-11T02:33:31.335Z,99.90
2017-05-11T02:35:59.876Z,99.90
2017-05-11T02:38:28.408Z,99.90
2017-05-11T02:40:56.984Z,99.90
2017-05-11T02:43:25.510Z,99.90
2017-05-11T02:45:54.058Z,99.90
2017-05-11T02:48:22.623Z,99.90
2017-05-11T02:50:51.154Z,99.90
2017-05-11T02:53:19.702Z,99.90
2017-05-11T02:55:48.272Z,99.90
2017-05-11T02:58:16.784Z,99.90
2017-05-11T03:00:45.309Z,99.90
2017-05-11T03:03:13.885Z,99.90
2017-05-11T03:05:42.403Z,99.90
2017-05-11T03:08:10.918Z,99.90
2017-05-11T03:10:39.493Z,99.90
2017-05-11T03:13:08.029Z,99.90
2017-05-11T03:15:36.545Z,99.90
2017-05-11T03:18:05.122Z,99.90
2017-05-11T03:20:33.642Z,99.90
2017-05-11T03:23:02.169Z,99.90
2017-05-11T03:25:30.741Z,99.90
2017-05-11T03:27:59.265Z,99.90
2017-05-11T03:30:27.788Z,99.90
2017-05-11T03:32:56.373Z,99.90
2017-05-11T03:35:24.893Z,99.90
2017-05-11T03:37:53.414Z,99.90
2017-05-11T03:40:21.978Z,99.90
2017-05-11T03:42:50.499Z,99.90
2017-05-11T03:45:19.031Z,99.90
2017-05-11T03:47:47.633Z,99.90
2017-05-11T03:50:16.156Z,99.90
2017-05-11T03:52:44.691Z,99.90
2017-05-11T03:55:13.257Z,99.90
2017-05-11T03:57:41.779Z,99.90
2017-05-11T04:00:10.333Z,99.90
2017-05-11T04:02:38.922Z,99.90
2017-05-11T04:05:07.457Z,98.90
2017-05-11T04:07:36.007Z,95.50
2017-05-11T04:10:04.622Z,94.30
2017-05-11T04:12:33.149Z,94.40
2017-05-11T04:15:01.687Z,91.50
2017-05-11T04:17:30.241Z,87.10
2017-05-11T04:19:58.773Z,81.40
2017-05-11T04:22:27.298Z,67.40
2017-05-11T04:24:55.876Z,61.90
2017-05-11T04:27:24.425Z,56.90
2017-05-11T04:29:52.943Z,53.10
2017-05-11T04:32:21.521Z,50.80
2017-05-11T04:34:50.111Z,47.30
2017-05-11T04:37:18.636Z,45.20
2017-05-11T04:39:47.207Z,44.90
2017-05-11T04:42:15.736Z,45.00
2017-05-11T04:44:44.268Z,43.10
2017-05-11T04:47:12.883Z,43.50
2017-05-11T04:49:41.408Z,43.00
2017-05-11T04:52:09.923Z,45.50
2017-05-11T04:54:38.482Z,44.50
2017-05-11T04:57:07.013Z,45.00
2017-05-11T04:59:35.535Z,45.90
2017-05-11T05:02:04.161Z,45.40
2017-05-11T05:04:32.688Z,45.20
2017-05-11T05:07:01.213Z,44.20
2017-05-11T05:09:29.807Z,42.40
2017-05-11T05:11:58.324Z,40.60
2017-05-11T05:14:26.849Z,38.80
2017-05-11T05:16:55.397Z,37.60
2017-05-11T05:19:23.933Z,35.10
2017-05-11T05:21:52.501Z,34.20
2017-05-11T05:24:21.069Z,30.10
2017-05-11T05:26:49.595Z,29.60
2017-05-11T05:29:18.114Z,29.10
2017-05-11T05:31:46.674Z,27.10
2017-05-11T05:34:15.197Z,24.40
2017-05-11T05:36:43.714Z,24.30
2017-05-11T05:39:12.274Z,23.20
2017-05-11T05:41:40.833Z,22.90
2017-05-11T05:44:09.750Z,22.00
2017-05-11T05:46:38.299Z,21.90
2017-05-11T05:49:06.801Z,20.40
2017-05-11T05:51:35.395Z,20.00
2017-05-11T05:54:03.955Z,19.40
2017-05-11T05:56:32.472Z,19.60
2017-05-11T05:59:01.006Z,18.90
2017-05-11T06:01:29.645Z,18.80
2017-05-11T06:03:58.248Z,18.60
2017-05-11T06:06:26.762Z,18.10
2017-05-11T06:08:55.318Z,17.20
2017-05-11T06:11:23.836Z,17.70
2017-05-11T06:13:52.369Z,18.70
2017-05-11T06:16:20.924Z,19.40
2017-05-11T06:18:49.429Z,19.30
2017-05-11T06:21:17.952Z,18.80
2017-05-11T06:23:46.500Z,19.20
2017-05-11T06:26:15.021Z,18.30
2017-05-11T06:28:43.550Z,20.30
2017-05-11T06:31:12.095Z,21.80
2017-05-11T06:33:40.606Z,22.70
2017-05-11T06:36:09.107Z,22.80
2017-05-11T06:38:37.649Z,23.20
2017-05-11T06:41:06.148Z,23.30
2017-05-11T06:43:34.659Z,23.70
2017-05-11T06:46:03.213Z,23.40
2017-05-11T06:48:31.716Z,23.40
2017-05-11T06:51:00.220Z,23.60
2017-05-11T06:53:28.770Z,24.60
2017-05-11T06:55:57.293Z,25.40
2017-05-11T06:58:25.804Z,24.70
2017-05-11T07:00:54.349Z,24.80
2017-05-11T07:03:22.853Z,25.00
2017-05-11T07:05:51.356Z,25.00
2017-05-11T07:08:19.914Z,25.40
2017-05-11T07:10:48.430Z,26.00
2017-05-11T07:13:16.925Z,26.90
2017-05-11T07:15:45.472Z,26.40
2017-05-11T07:18:13.981Z,26.60
2017-05-11T07:20:42.491Z,25.10
2017-05-11T07:23:11.032Z,26.50
2017-05-11T07:25:39.545Z,24.70
2017-05-11T07:28:08.053Z,23.80
2017-05-11T07:30:36.599Z,23.40
2017-05-11T07:33:05.116Z,22.10
2017-05-11T07:35:33.632Z,21.80
2017-05-11T07:38:02.177Z,21.70
2017-05-11T07:40:30.689Z,19.70
2017-05-11T07:42:59.188Z,18.50
2017-05-11T07:45:27.741Z,17.60
2017-05-11T07:47:56.240Z,16.90
2017-05-11T07:50:24.736Z,15.30
2017-05-11T07:52:53.279Z,14.80
2017-05-11T07:55:21.787Z,15.20
2017-05-11T07:57:50.308Z,15.50
2017-05-11T08:00:18.881Z,14.50
2017-05-11T08:02:47.399Z,14.70
2017-05-11T08:05:15.912Z,15.50
2017-05-11T08:07:44.489Z,15.00
2017-05-11T08:10:13.095Z,14.40
2017-05-11T08:12:41.623Z,14.70
2017-05-11T08:15:10.185Z,13.80
2017-05-11T08:17:38.705Z,13.40
2017-05-11T08:20:07.213Z,11.70
2017-05-11T08:22:35.774Z,13.40
2017-05-11T08:25:04.274Z,13.40
2017-05-11T08:27:32.786Z,12.20
2017-05-11T08:30:01.345Z,11.70
2017-05-11T08:32:29.860Z,12.10
2017-05-11T08:34:58.365Z,12.90
2017-05-11T08:37:26.913Z,12.10
2017-05-11T08:39:55.434Z,10.70
2017-05-11T08:42:23.932Z,10.40
2017-05-11T08:44:52.474Z,11.30
2017-05-11T08:47:20.983Z,11.40
2017-05-11T08:49:49.489Z,11.50
2017-05-11T08:52:18.049Z,11.30
2017-05-11T08:54:46.565Z,11.60
2017-05-11T08:57:15.068Z,12.50
2017-05-11T08:59:43.624Z,13.10
2017-05-11T09:02:12.125Z,14.70
2017-05-11T09:04:40.629Z,13.00
2017-05-11T09:07:09.177Z,12.20
2017-05-11T09:09:37.700Z,11.80
2017-05-11T09:12:06.222Z,11.90
2017-05-11T09:14:34.763Z,12.60
2017-05-11T09:17:03.270Z,12.20
2017-05-11T09:19:31.786Z,12.50
2017-05-11T09:22:00.367Z,13.40
2017-05-11T09:24:28.893Z,13.20
2017-05-11T09:26:57.412Z,15.50
2017-05-11T09:29:25.972Z,16.60
2017-05-11T09:31:54.480Z,18.80
2017-05-11T09:34:22.996Z,21.90
2017-05-11T09:36:51.564Z,22.00
2017-05-11T09:39:20.076Z,22.70
2017-05-11T09:41:48.580Z,24.20
2017-05-11T09:44:17.157Z,25.50
2017-05-11T09:46:45.676Z,23.70
2017-05-11T09:49:14.186Z,24.30
2017-05-11T09:51:42.728Z,24.50
2017-05-11T09:54:11.265Z,25.60
2017-05-11T09:56:39.776Z,25.10
2017-05-11T09:59:08.346Z,27.10
2017-05-11T10:01:36.855Z,25.50
2017-05-11T10:04:05.392Z,25.50
2017-05-11T10:06:33.944Z,27.30
2017-05-11T10:09:02.452Z,26.90
2017-05-11T10:11:30.959Z,27.30
2017-05-11T10:13:59.503Z,26.70
2017-05-11T10:16:28.001Z,27.50
2017-05-11T10:18:56.520Z,27.70
2017-05-11T10:21:25.069Z,29.10
2017-05-11T10:23:53.585Z,28.90
2017-05-11T10:26:22.084Z,27.90
2017-05-11T10:28:50.634Z,28.50
2017-05-11T10:31:19.140Z,28.60
2017-05-11T10:33:47.655Z,27.40
2017-05-11T10:36:16.216Z,27.00
2017-05-11T10:38:44.725Z,26.60
2017-05-11T10:41:13.234Z,27.60
2017-05-11T10:43:41.789Z,28.30
2017-05-11T10:46:10.292Z,26.90
2017-05-11T10:48:38.805Z,27.10
2017-05-11T10:51:07.353Z,26.90
2017-05-11T10:53:35.857Z,26.60
2017-05-11T10:56:04.359Z,26.80
2017-05-11T10:58:32.906Z,26.90
2017-05-11T11:01:01.412Z,27.30
2017-05-11T11:03:29.915Z,26.50
2017-05-11T11:05:58.469Z,25.90
2017-05-11T11:08:26.972Z,25.80
2017-05-11T11:10:55.488Z,24.40
2017-05-11T11:13:24.029Z,25.40
2017-05-11T11:15:52.532Z,25.20
2017-05-11T11:18:21.041Z,23.90
2017-05-11T11:20:49.613Z,24.10
2017-05-11T11:23:18.124Z,23.90
2017-05-11T11:25:46.631Z,26.00
2017-05-11T11:28:15.204Z,26.20
2017-05-11T11:30:43.713Z,26.50
2017-05-11T11:33:12.227Z,24.90
2017-05-11T11:35:40.770Z,24.20
2017-05-11T11:38:09.288Z,24.80
2017-05-11T11:40:37.788Z,25.70
2017-05-11T11:43:06.329Z,25.70
2017-05-11T11:45:34.836Z,25.50
2017-05-11T11:48:03.348Z,24.90
2017-05-11T11:50:31.911Z,24.90
2017-05-11T11:53:00.417Z,25.30
2017-05-11T11:55:28.925Z,25.80
2017-05-11T11:57:57.470Z,26.40
2017-05-11T12:00:25.978Z,25.40
2017-05-11T12:02:54.495Z,25.90
2017-05-11T12:05:23.057Z,25.50
2017-05-11T12:07:51.565Z,26.10
2017-05-11T12:10:20.081Z,25.80
2017-05-11T12:12:48.636Z,26.40
2017-05-11T12:15:17.144Z,25.90
2017-05-11T12:17:45.654Z,26.60
2017-05-11T12:20:14.210Z,26.20
2017-05-11T12:22:42.718Z,26.40
2017-05-11T12:25:11.248Z,26.00
2017-05-11T12:27:39.821Z,26.10
2017-05-11T12:30:08.331Z,25.50
2017-05-11T12:32:36.837Z,26.30
2017-05-11T12:35:05.394Z,26.40
2017-05-11T12:37:33.904Z,26.80
2017-05-11T12:40:02.416Z,25.70
2017-05-11T12:42:30.955Z,26.80
2017-05-11T12:44:59.458Z,27.60
2017-05-11T12:47:27.959Z,27.50
2017-05-11T12:49:56.512Z,28.20
2017-05-11T12:52:25.022Z,27.70
2017-05-11T12:54:53.536Z,26.90
2017-05-11T12:57:22.158Z,27.70
2017-05-11T12:59:50.694Z,27.40
2017-05-11T13:02:19.239Z,27.90
2017-05-11T13:04:47.836Z,27.40
2017-05-11T13:07:16.371Z,27.30
2017-05-11T13:09:44.925Z,27.20
2017-05-11T13:12:13.515Z,26.80
2017-05-11T13:14:42.051Z,28.20
2017-05-11T13:17:10.591Z,28.60
2017-05-11T13:19:39.180Z,28.30
2017-05-11T13:22:07.717Z,29.10
2017-05-11T13:24:36.260Z,28.80
2017-05-11T13:27:04.844Z,28.50
2017-05-11T13:29:33.390Z,28.50
2017-05-11T13:32:01.936Z,28.50
2017-05-11T13:34:30.516Z,29.00
2017-05-11T13:36:59.051Z,28.60
2017-05-11T13:39:27.588Z,28.70
2017-05-11T13:41:56.191Z,29.20
2017-05-11T13:44:24.738Z,29.10
2017-05-11T13:46:53.281Z,27.90
2017-05-11T13:49:21.875Z,27.60
2017-05-11T13:51:50.408Z,28.50
2017-05-11T13:54:18.941Z,28.10
2017-05-11T13:56:47.531Z,28.20
2017-05-11T13:59:16.065Z,27.80
2017-05-11T14:01:44.603Z,28.00
2017-05-11T14:04:13.199Z,28.60
2017-05-11T14:06:41.741Z,29.10
2017-05-11T14:09:10.277Z,29.60
2017-05-11T14:11:38.868Z,29.00
2017-05-11T14:14:07.401Z,29.60
2017-05-11T14:16:35.945Z,29.40
2017-05-11T14:19:04.531Z,29.00
2017-05-11T14:21:33.067Z,29.00
2017-05-11T14:24:01.599Z,29.10
2017-05-11T14:26:30.204Z,28.90
2017-05-11T14:28:58.743Z,29.20
2017-05-11T14:31:27.279Z,29.00
2017-05-11T14:33:55.852Z,29.40
2017-05-11T14:36:24.388Z,28.40
2017-05-11T14:38:52.962Z,28.20
2017-05-11T14:41:21.558Z,28.30
2017-05-11T14:43:50.101Z,29.00
2017-05-11T14:46:18.650Z,28.90
2017-05-11T14:48:47.232Z,28.90
2017-05-11T14:51:15.834Z,29.10
2017-05-11T14:53:44.397Z,29.70
2017-05-11T14:56:12.999Z,29.60
2017-05-11T14:58:41.528Z,30.00
2017-05-11T15:01:10.061Z,29.80
2017-05-11T15:03:38.652Z,28.70
2017-05-11T15:06:07.200Z,29.00
2017-05-11T15:08:35.734Z,29.10
2017-05-11T15:11:04.345Z,28.90
2017-05-11T15:13:32.886Z,29.30
2017-05-11T15:16:01.427Z,29.00
2017-05-11T15:18:30.070Z,29.20
2017-05-11T15:20:58.614Z,29.00
2017-05-11T15:23:27.148Z,29.70
2017-05-11T15:25:55.732Z,29.70
2017-05-11T15:28:24.261Z,29.20
2017-05-11T15:30:52.809Z,29.90
2017-05-11T15:33:21.395Z,30.00
2017-05-11T15:35:49.925Z,30.00
2017-05-11T15:38:18.472Z,29.30
2017-05-11T15:40:47.052Z,29.60
2017-05-11T15:43:15.593Z,30.00
2017-05-11T15:45:44.124Z,30.00
2017-05-11T15:48:12.722Z,29.50
2017-05-11T15:50:41.257Z,29.80
2017-05-11T15:53:09.802Z,29.60
2017-05-11T15:55:38.430Z,29.50
2017-05-11T15:58:06.969Z,29.40
2017-05-11T16:00:35.512Z,30.00
2017-05-11T16:03:04.093Z,29.20
2017-05-11T16:05:32.628Z,29.70
2017-05-11T16:08:01.162Z,29.70
2017-05-11T16:10:29.758Z,30.00
2017-05-11T16:12:58.302Z,29.60
2017-05-11T16:15:26.854Z,29.50
2017-05-11T16:17:55.479Z,30.40
2017-05-11T16:20:24.026Z,29.20
2017-05-11T16:22:52.582Z,29.30
2017-05-11T16:25:21.159Z,29.40
2017-05-11T16:27:49.696Z,30.20
2017-05-11T16:30:18.236Z,30.20
2017-05-11T16:32:47.309Z,29.90
2017-05-11T16:35:15.851Z,30.20
2017-05-11T16:37:44.396Z,30.20
2017-05-11T16:40:12.981Z,30.20
2017-05-11T16:42:41.516Z,30.40
2017-05-11T16:45:10.065Z,30.10
2017-05-11T16:47:38.663Z,30.10
2017-05-11T16:50:07.196Z,30.40
2017-05-11T16:52:35.787Z,31.10
2017-05-11T16:55:04.369Z,30.00
2017-05-11T16:57:32.904Z,30.70
2017-05-11T17:00:01.449Z,30.80
2017-05-11T17:02:30.037Z,31.10
2017-05-11T17:04:58.575Z,31.10
2017-05-11T17:07:27.106Z,31.30
2017-05-11T17:09:55.685Z,31.00
2017-05-11T17:12:24.236Z,31.30
2017-05-11T17:14:52.774Z,31.60
2017-05-11T17:17:21.359Z,31.50
2017-05-11T17:19:49.891Z,31.90
2017-05-11T17:22:18.425Z,33.30
2017-05-11T17:24:47.004Z,34.00
2017-05-11T17:27:15.536Z,35.20
2017-05-11T17:29:44.073Z,35.20
2017-05-11T17:32:12.660Z,35.90
2017-05-11T17:34:41.195Z,36.40
2017-05-11T17:37:09.739Z,36.50
2017-05-11T17:39:38.347Z,37.30
2017-05-11T17:42:06.871Z,37.20
2017-05-11T17:44:35.414Z,37.30
2017-05-11T17:47:04.000Z,37.90
2017-05-11T17:49:32.545Z,37.90
2017-05-11T17:52:01.094Z,37.80
2017-05-11T17:54:29.674Z,38.20
2017-05-11T17:56:58.203Z,38.70
2017-05-11T17:59:26.751Z,38.80
2017-05-11T18:01:55.342Z,39.00
2017-05-11T18:04:23.891Z,38.60
2017-05-11T18:06:52.432Z,38.90
2017-05-11T18:09:21.022Z,39.00
2017-05-11T18:11:49.578Z,40.00
2017-05-11T18:14:18.109Z,40.30
2017-05-11T18:16:46.697Z,40.30
2017-05-11T18:19:15.238Z,40.30
2017-05-11T18:21:43.776Z,40.40
2017-05-11T18:24:12.492Z,41.10
2017-05-11T18:26:41.049Z,41.30
2017-05-11T18:29:10.131Z,41.90
2017-05-11T18:31:38.832Z,41.90
2017-05-11T18:34:07.389Z,43.10
2017-05-11T18:36:35.961Z,42.90
2017-05-11T18:39:04.640Z,43.10
2017-05-11T18:41:33.185Z,42.70
2017-05-11T18:44:01.924Z,43.20
2017-05-11T18:46:30.531Z,43.80
2017-05-11T18:48:59.078Z,43.40
2017-05-11T18:51:27.667Z,43.00
2017-05-11T18:53:56.310Z,43.50
2017-05-11T18:56:24.864Z,44.00
2017-05-11T18:58:53.409Z,44.00
2017-05-11T19:01:22.060Z,44.00
2017-05-11T19:03:50.711Z,44.30
2017-05-11T19:06:19.370Z,44.90
2017-05-11T19:08:48.011Z,44.70
2017-05-11T19:11:16.565Z,44.80
2017-05-11T19:13:45.746Z,44.80
2017-05-11T19:16:14.960Z,45.10
2017-05-11T19:18:43.528Z,46.00
2017-05-11T19:21:12.123Z,46.10
2017-05-11T19:23:40.754Z,46.70
2017-05-11T19:26:09.364Z,46.70
2017-05-11T19:28:37.940Z,46.70
2017-05-11T19:31:07.634Z,47.00
2017-05-11T19:33:36.287Z,47.30
2017-05-11T19:36:04.852Z,47.30
2017-05-11T19:38:33.458Z,47.60
2017-05-11T19:41:02.034Z,47.60
2017-05-11T19:43:30.592Z,48.00
2017-05-11T19:45:59.186Z,48.30
2017-05-11T19:48:27.737Z,49.30
2017-05-11T19:50:56.633Z,48.20
2017-05-11T19:53:25.252Z,48.20
2017-05-11T19:55:53.801Z,48.70
2017-05-11T19:58:23.274Z,49.10
2017-05-11T20:00:52.073Z,49.90
2017-05-11T20:03:20.628Z,50.00
2017-05-11T20:05:49.204Z,50.00
2017-05-11T20:08:17.822Z,50.70
2017-05-11T20:10:47.122Z,51.40
2017-05-11T20:13:15.665Z,52.10
2017-05-11T20:15:44.277Z,52.50
2017-05-11T20:18:12.822Z,53.00
2017-05-11T20:20:41.363Z,54.00
2017-05-11T20:23:09.970Z,55.30
2017-05-11T20:25:38.528Z,57.10
2017-05-11T20:28:07.076Z,58.90
2017-05-11T20:30:35.683Z,60.50
2017-05-11T20:33:04.273Z,63.20
2017-05-11T20:35:32.827Z,64.60
2017-05-11T20:38:01.429Z,65.70
2017-05-11T20:40:30.165Z,66.80
2017-05-11T20:42:58.744Z,68.60
2017-05-11T20:45:27.351Z,71.20
2017-05-11T20:47:55.920Z,74.60
2017-05-11T20:50:24.497Z,77.20
2017-05-11T20:52:53.101Z,80.20
2017-05-11T20:55:21.646Z,83.10
2017-05-11T20:57:50.195Z,86.70
2017-05-11T21:00:18.804Z,90.00
2017-05-11T21:02:47.430Z,91.70
2017-05-11T21:05:15.994Z,93.10
2017-05-11T21:07:44.607Z,94.10
2017-05-11T21:10:13.154Z,94.50
2017-05-11T21:12:41.708Z,95.30
2017-05-11T21:15:10.309Z,96.00
2017-05-11T21:17:38.900Z,96.90
2017-05-11T21:20:08.228Z,97.90
2017-05-11T21:22:36.838Z,98.80
2017-05-11T21:25:05.398Z,99.30
2017-05-11T21:27:33.970Z,99.80
2017-05-11T21:30:02.583Z,99.90
2017-05-11T21:32:31.141Z,99.90
2017-05-11T21:34:59.706Z,99.90
2017-05-11T21:37:28.302Z,99.90
2017-05-11T21:39:56.857Z,99.90
2017-05-11T21:42:25.410Z,99.90
2017-05-11T21:44:54.009Z,99.90
2017-05-11T21:47:22.563Z,99.90
2017-05-11T21:49:51.129Z,99.90
2017-05-11T21:52:19.751Z,99.90
2017-05-11T21:54:48.312Z,99.90
2017-05-11T21:57:16.866Z,99.90
2017-05-11T21:59:45.484Z,99.90
2017-05-11T22:02:14.016Z,99.90
2017-05-11T22:04:42.565Z,99.90
2017-05-11T22:07:11.157Z,99.90
2017-05-11T22:09:39.733Z,99.90
2017-05-11T22:12:08.283Z,99.90
2017-05-11T22:14:36.877Z,99.90
2017-05-11T22:17:05.447Z,99.90
2017-05-11T22:19:34.017Z,99.90
2017-05-11T22:22:02.631Z,99.90
2017-05-11T22:24:31.229Z,99.90
2017-05-11T22:26:59.896Z,99.90
2017-05-11T22:29:28.691Z,99.90
2017-05-11T22:31:57.253Z,99.90
2017-05-11T22:34:25.912Z,99.90
2017-05-11T22:36:54.567Z,99.90
2017-05-11T22:39:23.160Z,99.90
2017-05-11T22:41:51.788Z,99.90
2017-05-11T22:44:20.419Z,99.90
2017-05-11T22:46:48.976Z,99.90
2017-05-11T22:49:17.523Z,99.90
2017-05-11T22:51:46.130Z,99.90
2017-05-11T22:54:14.677Z,99.90
2017-05-11T22:56:43.236Z,99.90
2017-05-11T22:59:11.839Z,99.90
2017-05-11T23:01:40.383Z,99.90
2017-05-11T23:04:08.938Z,99.90
2017-05-11T23:06:37.560Z,99.90
2017-05-11T23:09:06.112Z,99.90
2017-05-11T23:11:34.671Z,99.90
2017-05-11T23:14:03.283Z,99.90
2017-05-11T23:16:31.836Z,99.90
2017-05-11T23:19:00.420Z,99.90
2017-05-11T23:21:29.033Z,99.90
2017-05-11T23:23:57.635Z,99.90
2017-05-11T23:26:26.183Z,99.90
2017-05-11T23:28:54.847Z,99.90
2017-05-11T23:31:23.427Z,99.90
2017-05-11T23:33:51.991Z,99.90
2017-05-11T23:36:20.604Z,99.90
2017-05-11T23:38:49.195Z,99.90
2017-05-11T23:41:17.770Z,99.90
2017-05-11T23:43:46.369Z,99.90
2017-05-11T23:46:14.953Z,99.90
2017-05-11T23:48:43.527Z,99.90
2017-05-11T23:51:12.115Z,99.90
2017-05-11T23:53:40.669Z,99.90
2017-05-11T23:56:09.241Z,99.90
2017-05-11T23:58:37.838Z,99.90
